Time;durP1;ratioP1;P1;durP2;ratioP2;P2;SDS_P1;SDS_P2;PMS_P1;PMS_P2;Temp;Humidity;BMP_temperature;BMP_pressure;BME280_temperature;BME280_humidity;BME280_pressure;Samples;Min_cycle;Max_cycle;Signal;HPM_P1;HPM_P2
2023/07/15 00:01:02;;;;;;;4.40;1.77;;;;;;;21.12;59.46;100395.06;4995788;28;97775;-28
2023/07/15 00:03:28;;;;;;;4.70;1.85;;;;;;;21.16;59.61;100397.25;4996249;28;99625;-28
2023/07/15 00:05:53;;;;;;;2.90;1.45;;;;;;;21.20;58.92;100403.28;4996703;28;96650;-28
2023/07/15 00:08:19;;;;;;;3.30;1.50;;;;;;;21.26;59.42;100408.13;4996598;28;96806;-27
2023/07/15 00:10:46;;;;;;;4.03;1.27;;;;;;;21.32;58.73;100410.16;4995988;28;99348;-27
2023/07/15 00:13:13;;;;;;;4.30;1.52;;;;;;;21.33;57.92;100406.38;4994209;28;101091;-28
2023/07/15 00:15:40;;;;;;;4.15;1.17;;;;;;;21.40;58.65;100409.31;4994947;28;96575;-30
2023/07/15 00:18:06;;;;;;;3.03;1.38;;;;;;;21.42;58.23;100404.47;4995319;28;96837;-29
2023/07/15 00:20:32;;;;;;;7.70;1.50;;;;;;;21.42;58.40;100405.34;4994664;28;100885;-28
2023/07/15 00:22:57;;;;;;;1.70;1.15;;;;;;;21.42;58.63;100410.84;4996075;28;97183;-27
2023/07/15 00:25:22;;;;;;;1.95;1.10;;;;;;;21.37;58.79;100404.97;4995719;28;96495;-28
2023/07/15 00:27:48;;;;;;;3.88;1.10;;;;;;;21.39;58.59;100413.06;4996100;28;96775;-28
2023/07/15 00:30:17;;;;;;;3.00;1.27;;;;;;;21.41;58.00;100405.53;4995954;28;97548;-28
2023/07/15 00:32:47;;;;;;;1.88;1.20;;;;;;;21.47;58.06;100424.09;4994253;28;101570;-27
2023/07/15 00:35:24;;;;;;;2.13;1.20;;;;;;;21.44;57.53;100424.47;4995650;28;96617;-27
2023/07/15 00:37:50;;;;;;;4.85;1.40;;;;;;;21.42;58.17;100427.38;4978639;28;96841;-28
2023/07/15 00:40:15;;;;;;;2.30;1.20;;;;;;;21.42;58.22;100429.28;4995493;28;97379;-27
2023/07/15 00:42:53;;;;;;;3.35;1.35;;;;;;;21.45;57.80;100428.91;4994471;28;100547;-28
2023/07/15 00:45:18;;;;;;;1.35;1.00;;;;;;;21.43;58.24;100431.00;4994856;28;96630;-28
2023/07/15 00:48:09;;;;;;;1.93;1.00;;;;;;;21.40;58.06;100437.75;4995647;28;96812;-27
2023/07/15 00:50:39;;;;;;;1.53;1.00;;;;;;;21.32;58.60;100432.19;4993451;28;100635;-27
2023/07/15 00:53:04;;;;;;;1.80;1.08;;;;;;;21.30;58.87;100442.53;4993939;28;99797;-27
2023/07/15 00:55:30;;;;;;;1.98;1.20;;;;;;;21.18;59.21;100444.78;4995858;28;96609;-28
2023/07/15 00:57:57;;;;;;;2.47;1.33;;;;;;;21.13;59.55;100462.88;4995881;28;96818;-27
2023/07/15 01:00:23;;;;;;;2.25;1.23;;;;;;;21.08;59.84;100465.28;4995260;28;99348;-28
2023/07/15 01:02:48;;;;;;;5.97;1.27;;;;;;;21.01;60.35;100451.34;4995201;28;97393;-27
2023/07/15 01:05:14;;;;;;;1.70;1.10;;;;;;;21.01;60.37;100448.59;4995702;28;97170;-28
2023/07/15 01:07:39;;;;;;;5.50;1.73;;;;;;;21.03;60.36;100452.03;4995948;28;96753;-29
2023/07/15 01:10:05;;;;;;;2.55;1.10;;;;;;;20.99;60.72;100451.50;4995157;28;98409;-29
2023/07/15 01:12:30;;;;;;;2.67;1.40;;;;;;;20.96;60.83;100445.50;4994943;28;99429;-27
2023/07/15 01:14:55;;;;;;;2.67;1.20;;;;;;;20.95;61.29;100450.13;4995019;28;98442;-28
2023/07/15 01:17:21;;;;;;;2.40;1.35;;;;;;;20.92;61.19;100442.19;4995365;28;96944;-27
2023/07/15 01:19:46;;;;;;;2.33;1.20;;;;;;;20.92;61.20;100444.94;4994680;28;99537;-27
2023/07/15 01:22:12;;;;;;;2.83;1.27;;;;;;;20.90;61.55;100448.91;4994744;28;99210;-27
2023/07/15 01:24:39;;;;;;;3.15;1.48;;;;;;;20.84;62.25;100450.47;4993973;28;96744;-28
2023/07/15 01:27:07;;;;;;;2.20;1.10;;;;;;;20.82;62.31;100451.69;4995297;28;96780;-27
2023/07/15 01:29:32;;;;;;;1.90;1.10;;;;;;;20.74;62.36;100447.88;4993454;28;101240;-28
2023/07/15 01:31:58;;;;;;;4.95;1.40;;;;;;;20.68;62.41;100451.31;4995475;28;97894;-28
2023/07/15 01:34:24;;;;;;;2.67;1.40;;;;;;;20.65;62.99;100454.41;4994832;28;96657;-27
2023/07/15 01:36:50;;;;;;;2.10;1.30;;;;;;;20.61;63.15;100447.50;4993497;28;97000;-28
2023/07/15 01:39:16;;;;;;;3.28;1.65;;;;;;;20.56;63.89;100449.91;4992945;28;100946;-27
2023/07/15 01:41:42;;;;;;;3.92;1.90;;;;;;;20.60;63.53;100456.81;4994920;28;97778;-28
2023/07/15 01:44:07;;;;;;;2.10;1.38;;;;;;;20.61;63.56;100457.66;4994992;28;96586;-30
2023/07/15 01:46:36;;;;;;;5.38;1.40;;;;;;;20.54;64.02;100451.94;4994989;28;96820;-28
2023/07/15 01:49:03;;;;;;;2.13;1.38;;;;;;;20.64;64.41;100468.31;4992546;28;101449;-27
2023/07/15 01:51:29;;;;;;;2.45;1.42;;;;;;;20.66;64.07;100458.00;4994395;28;99151;-28
2023/07/15 01:53:54;;;;;;;2.63;1.20;;;;;;;20.62;64.32;100446.50;4994695;28;98154;-28
2023/07/15 01:56:21;;;;;;;2.40;1.02;;;;;;;20.63;64.72;100456.47;4995426;28;96840;-29
2023/07/15 01:58:46;;;;;;;2.28;1.13;;;;;;;20.66;64.99;100455.25;4994497;28;97966;-29
2023/07/15 02:01:12;;;;;;;2.20;1.10;;;;;;;20.61;64.68;100441.16;4994688;28;98016;-28
2023/07/15 02:03:37;;;;;;;2.38;0.98;;;;;;;20.68;64.75;100459.56;4994059;28;96591;-27
2023/07/15 02:06:03;;;;;;;2.88;1.02;;;;;;;20.70;65.38;100456.66;4994923;28;96788;-27
2023/07/15 02:08:28;;;;;;;4.18;1.20;;;;;;;20.64;64.88;100444.44;4994359;28;97410;-27
2023/07/15 02:10:53;;;;;;;2.10;1.13;;;;;;;20.66;65.65;100449.75;4994136;28;99266;-27
2023/07/15 02:13:19;;;;;;;2.38;1.23;;;;;;;20.67;65.74;100457.00;4995426;28;96589;-28
2023/07/15 02:15:44;;;;;;;1.38;1.00;;;;;;;20.61;66.10;100452.16;4998451;28;96734;-28
2023/07/15 02:18:10;;;;;;;3.65;1.17;;;;;;;20.65;66.46;100448.91;4997753;28;98452;-27
2023/07/15 02:20:37;;;;;;;4.70;1.05;;;;;;;20.70;66.23;100446.50;4998390;28;97779;-27
2023/07/15 02:23:03;;;;;;;2.35;1.10;;;;;;;20.73;67.36;100448.91;4998063;28;96618;-28
2023/07/15 02:25:28;;;;;;;6.88;1.23;;;;;;;20.70;66.67;100446.50;4998109;28;96808;-28
2023/07/15 02:27:53;;;;;;;1.40;1.00;;;;;;;20.70;67.09;100443.75;4997378;28;97924;-28
2023/07/15 02:30:19;;;;;;;1.92;1.00;;;;;;;20.71;66.90;100445.47;4997788;28;97763;-27
2023/07/15 02:32:45;;;;;;;2.67;1.05;;;;;;;20.69;67.07;100442.03;4998075;28;96618;-27
2023/07/15 02:35:13;;;;;;;1.05;0.95;;;;;;;20.72;67.06;100443.59;4997628;28;96872;-28
2023/07/15 02:37:41;;;;;;;2.83;1.17;;;;;;;20.72;66.54;100460.94;4996168;28;101377;-28
2023/07/15 02:40:10;;;;;;;2.58;1.10;;;;;;;20.68;67.42;100445.81;4996163;28;101007;-27
2023/07/15 02:42:36;;;;;;;2.70;1.15;;;;;;;20.65;67.40;100448.06;4996454;28;96696;-27
2023/07/15 02:45:07;;;;;;;2.40;1.13;;;;;;;20.60;68.80;100442.19;4996515;28;96873;-28
2023/07/15 02:47:33;;;;;;;1.70;1.05;;;;;;;20.61;67.71;100453.00;4995738;28;100999;-27
2023/07/15 02:50:08;;;;;;;2.50;1.13;;;;;;;20.57;68.88;100447.00;4995823;28;100976;-27
2023/07/15 02:52:35;;;;;;;1.92;0.90;;;;;;;20.52;68.44;100446.63;4997002;28;96592;-28
2023/07/15 02:55:02;;;;;;;1.27;0.82;;;;;;;20.55;67.93;100456.44;4996045;28;96867;-28
2023/07/15 02:57:28;;;;;;;4.53;1.17;;;;;;;20.54;68.17;100455.53;4995747;28;101078;-28
2023/07/15 02:59:54;;;;;;;4.07;0.93;;;;;;;20.50;68.04;100448.69;4995644;28;100899;-27
2023/07/15 03:02:20;;;;;;;2.85;0.98;;;;;;;20.49;68.16;100446.94;4996188;28;96730;-27
2023/07/15 03:04:46;;;;;;;2.25;1.23;;;;;;;20.51;69.41;100450.38;4997453;28;96854;-27
2023/07/15 03:07:13;;;;;;;2.40;1.08;;;;;;;20.45;69.00;100442.81;4995755;28;100823;-28
2023/07/15 03:09:38;;;;;;;1.58;0.88;;;;;;;20.47;68.76;100456.41;4997350;28;99561;-28
2023/07/15 03:12:04;;;;;;;2.90;1.20;;;;;;;20.43;69.26;100444.88;4997848;28;96465;-27
2023/07/15 03:14:29;;;;;;;1.63;0.85;;;;;;;20.45;69.46;100448.34;4996978;28;96885;-28
2023/07/15 03:16:54;;;;;;;1.25;0.90;;;;;;;20.42;70.55;100451.41;4996723;28;97903;-27
2023/07/15 03:19:20;;;;;;;1.85;1.00;;;;;;;20.36;70.93;100443.84;4996909;28;99024;-27
2023/07/15 03:21:45;;;;;;;3.60;1.10;;;;;;;20.37;70.42;100446.41;4997173;28;96698;-27
2023/07/15 03:24:10;;;;;;;2.00;1.10;;;;;;;20.36;70.47;100439.19;4996918;28;96766;-29
2023/07/15 03:26:36;;;;;;;1.92;0.98;;;;;;;20.41;70.03;100440.56;4995768;28;103217;-28
2023/07/15 03:29:05;;;;;;;2.35;1.15;;;;;;;20.37;70.22;100440.91;4996700;28;97363;-27
2023/07/15 03:31:31;;;;;;;2.60;1.13;;;;;;;20.41;70.79;100443.34;4997213;28;96467;-28
2023/07/15 03:33:56;;;;;;;1.38;0.70;;;;;;;20.40;71.66;100449.84;4995831;28;96843;-27
2023/07/15 03:36:22;;;;;;;1.85;0.90;;;;;;;20.35;71.21;100451.22;4996359;28;99108;-27
2023/07/15 03:38:48;;;;;;;1.83;0.73;;;;;;;20.36;71.28;100452.94;4996474;28;98851;-28
2023/07/15 03:41:13;;;;;;;1.80;0.85;;;;;;;20.37;71.88;100451.91;4996271;28;96718;-27
2023/07/15 03:43:38;;;;;;;3.22;0.98;;;;;;;20.39;73.74;100456.38;4996604;28;96866;-28
2023/07/15 03:46:04;;;;;;;1.95;0.85;;;;;;;20.36;72.61;100450.19;4996370;28;97966;-28
2023/07/15 03:48:29;;;;;;;3.40;1.13;;;;;;;20.36;71.92;100447.44;4996023;28;99079;-27
2023/07/15 03:50:54;;;;;;;1.80;0.90;;;;;;;20.39;72.21;100462.75;4996430;28;101356;-28
2023/07/15 03:53:20;;;;;;;1.25;0.80;;;;;;;20.42;72.56;100456.91;4996365;28;101463;-27
2023/07/15 03:55:45;;;;;;;2.17;1.02;;;;;;;20.47;71.71;100457.25;4996305;28;103869;-28
2023/07/15 03:58:10;;;;;;;2.33;0.90;;;;;;;20.47;73.28;100462.75;4996068;28;109690;-28
2023/07/15 04:00:36;;;;;;;1.67;0.95;;;;;;;20.40;72.59;100444.34;4996716;28;96689;-27
2023/07/15 04:03:01;;;;;;;1.20;0.93;;;;;;;20.45;72.65;100456.59;4996704;28;96827;-27
2023/07/15 04:05:27;;;;;;;1.30;0.80;;;;;;;20.46;73.21;100461.03;4995633;28;99747;-27
2023/07/15 04:07:53;;;;;;;1.30;1.00;;;;;;;20.46;73.40;100466.56;4996159;28;97861;-27
2023/07/15 04:10:19;;;;;;;2.90;0.95;;;;;;;20.45;72.92;100473.09;4995036;28;96672;-28
2023/07/15 04:12:44;;;;;;;2.08;0.77;;;;;;;20.42;73.77;100467.91;4996009;28;98181;-27
2023/07/15 04:15:10;;;;;;;1.45;0.77;;;;;;;20.42;73.97;100465.16;4996169;28;97930;-27
2023/07/15 04:17:35;;;;;;;0.82;0.57;;;;;;;20.43;74.24;100469.66;4995969;28;99460;-28
2023/07/15 04:20:00;;;;;;;1.27;0.65;;;;;;;20.39;74.14;100470.16;4996528;28;96747;-27
2023/07/15 04:22:26;;;;;;;2.10;0.68;;;;;;;20.46;73.82;100484.94;4995226;28;96899;-27
2023/07/15 04:24:51;;;;;;;1.00;0.80;;;;;;;20.40;75.26;100478.22;4996129;28;98064;-27
2023/07/15 04:27:17;;;;;;;2.35;1.45;;;;;;;20.43;74.73;100488.06;4995458;28;106419;-27
2023/07/15 04:29:43;;;;;;;3.03;0.50;;;;;;;20.48;74.57;100493.91;4995819;28;96598;-27
2023/07/15 04:32:08;;;;;;;1.75;0.80;;;;;;;20.45;73.93;100483.22;4996169;28;96928;-28
2023/07/15 04:34:34;;;;;;;1.13;0.60;;;;;;;20.47;73.87;100483.91;4995758;28;98326;-27
2023/07/15 04:36:59;;;;;;;1.08;0.52;;;;;;;20.49;74.17;100488.22;4995142;28;97759;-27
2023/07/15 04:39:27;;;;;;;0.55;0.55;;;;;;;20.44;74.51;100492.50;4996016;28;96876;-28
2023/07/15 04:41:52;;;;;;;1.23;0.68;;;;;;;20.46;76.31;100498.72;4994507;28;97078;-27
2023/07/15 04:44:17;;;;;;;1.33;0.68;;;;;;;20.46;74.43;100494.06;4995681;28;97466;-29
2023/07/15 04:46:43;;;;;;;0.93;0.43;;;;;;;20.44;74.67;100503.50;4996053;28;97758;-27
2023/07/15 04:49:09;;;;;;;2.08;0.70;;;;;;;20.46;75.05;100504.22;4995224;28;96778;-27
2023/07/15 04:51:34;;;;;;;1.63;0.68;;;;;;;20.44;74.77;100500.75;4995894;28;96781;-27
2023/07/15 04:54:00;;;;;;;1.70;0.93;;;;;;;20.40;74.75;100494.72;4994914;28;97447;-27
2023/07/15 04:56:26;;;;;;;1.15;0.70;;;;;;;20.36;73.87;100494.22;4995155;28;99178;-28
2023/07/15 04:58:52;;;;;;;0.90;0.50;;;;;;;20.32;73.08;100486.44;4995841;28;96496;-27
2023/07/15 05:01:18;;;;;;;1.45;0.75;;;;;;;20.37;72.83;100498.66;4995801;28;96770;-28
2023/07/15 05:03:43;;;;;;;0.63;0.45;;;;;;;20.40;72.81;100491.13;4993978;28;100972;-27
2023/07/15 05:06:09;;;;;;;2.50;0.95;;;;;;;20.43;72.74;100491.66;4995408;28;97971;-27
2023/07/15 05:08:34;;;;;;;1.60;0.63;;;;;;;20.46;72.57;100496.81;4995775;28;96731;-28
2023/07/15 05:10:59;;;;;;;0.70;0.57;;;;;;;20.46;72.79;100505.06;4995955;28;96760;-28
2023/07/15 05:13:25;;;;;;;3.70;0.50;;;;;;;20.45;72.85;100499.72;4995230;28;98428;-27
2023/07/15 05:15:51;;;;;;;1.65;0.90;;;;;;;20.42;72.33;100494.56;4993708;28;101215;-28
2023/07/15 05:18:17;;;;;;;0.80;0.38;;;;;;;20.45;72.29;100500.59;4995321;28;96679;-27
2023/07/15 05:20:43;;;;;;;3.25;0.57;;;;;;;20.41;73.00;100501.09;4995416;28;96803;-27
2023/07/15 05:23:08;;;;;;;1.45;0.73;;;;;;;20.43;72.60;100497.16;4995188;28;97422;-28
2023/07/15 05:25:33;;;;;;;1.92;0.68;;;;;;;20.42;72.79;100484.41;4994797;28;98820;-27
2023/07/15 05:27:59;;;;;;;1.30;0.50;;;;;;;20.40;73.83;100494.72;4995322;28;96576;-27
2023/07/15 05:30:25;;;;;;;2.55;0.88;;;;;;;20.44;72.72;100495.25;4995394;28;96795;-29
2023/07/15 05:32:51;;;;;;;1.50;0.88;;;;;;;20.41;72.97;100490.97;4993407;28;100909;-27
2023/07/15 05:35:16;;;;;;;4.82;0.77;;;;;;;20.42;73.58;100494.56;4994764;28;99083;-27
2023/07/15 05:37:42;;;;;;;1.85;0.70;;;;;;;20.42;73.58;100494.56;4995059;28;96710;-27
2023/07/15 05:40:12;;;;;;;2.50;0.77;;;;;;;20.39;73.76;100489.41;4994789;28;96899;-27
2023/07/15 05:42:44;;;;;;;2.50;0.70;;;;;;;20.41;73.75;100490.97;4992871;28;100902;-28
2023/07/15 05:45:10;;;;;;;2.72;0.73;;;;;;;20.46;73.68;100494.06;4993425;28;101040;-27
2023/07/15 05:47:36;;;;;;;4.38;0.82;;;;;;;20.50;74.00;100495.47;4992869;28;96597;-27
2023/07/15 05:50:03;;;;;;;4.40;0.70;;;;;;;20.51;74.08;100499.06;4993020;28;97003;-27
2023/07/15 05:52:29;;;;;;;1.45;0.80;;;;;;;20.51;75.49;100504.56;4993013;28;101549;-27
2023/07/15 05:54:54;;;;;;;1.80;0.82;;;;;;;20.50;74.54;100508.38;4994446;28;98196;-27
2023/07/15 05:57:20;;;;;;;2.95;0.70;;;;;;;20.46;74.32;100507.81;4995078;28;97272;-28
2023/07/15 05:59:45;;;;;;;1.35;0.65;;;;;;;20.42;74.41;100508.31;4995334;28;96770;-28
2023/07/15 06:02:10;;;;;;;0.98;0.60;;;;;;;20.48;73.92;100518.66;4994570;28;97946;-27
2023/07/15 06:04:36;;;;;;;1.13;0.60;;;;;;;20.36;72.64;100507.97;4994398;28;99167;-27
2023/07/15 06:07:01;;;;;;;1.10;0.55;;;;;;;20.41;72.51;100504.72;4994364;28;96495;-28
2023/07/15 06:09:27;;;;;;;1.40;0.57;;;;;;;20.48;71.96;100504.91;4994767;28;96810;-27
2023/07/15 06:11:52;;;;;;;0.70;0.50;;;;;;;20.56;71.08;100511.31;4994204;28;99287;-27
2023/07/15 06:14:17;;;;;;;0.30;0.30;;;;;;;20.67;70.74;100512.91;4994375;28;97892;-29
2023/07/15 06:16:43;;;;;;;1.70;0.57;;;;;;;20.73;69.82;100512.22;4994741;28;96529;-27
2023/07/15 06:19:08;;;;;;;1.05;0.47;;;;;;;20.81;69.37;100510.50;4993403;28;96818;-27
2023/07/15 06:21:35;;;;;;;0.47;0.30;;;;;;;20.94;69.15;100521.91;4994450;28;97296;-28
2023/07/15 06:24:01;;;;;;;1.58;0.57;;;;;;;21.01;68.37;100511.91;4993011;28;100883;-27
2023/07/15 06:26:26;;;;;;;1.17;0.55;;;;;;;21.02;68.69;100508.13;4994681;28;96681;-27
2023/07/15 06:28:51;;;;;;;0.88;0.40;;;;;;;20.99;67.90;100525.00;4994421;28;96640;-28
2023/07/15 06:31:17;;;;;;;0.40;0.30;;;;;;;20.83;67.79;100506.53;4993641;28;99292;-28
2023/07/15 06:33:44;;;;;;;0.85;0.40;;;;;;;20.78;67.92;100504.34;4994087;28;97763;-28
2023/07/15 06:36:10;;;;;;;0.85;0.38;;;;;;;20.84;68.85;100515.69;4994691;28;96501;-28
2023/07/15 06:38:35;;;;;;;1.50;0.45;;;;;;;20.75;67.61;100514.81;4992938;28;97005;-27
2023/07/15 06:41:01;;;;;;;1.00;0.45;;;;;;;20.76;67.16;100524.78;4994092;28;97360;-27
2023/07/15 06:43:27;;;;;;;0.45;0.40;;;;;;;20.74;66.68;100529.63;4994129;28;97844;-27
2023/07/15 06:45:52;;;;;;;1.15;0.50;;;;;;;20.75;66.58;100529.44;4994366;28;96629;-28
2023/07/15 06:48:17;;;;;;;1.67;0.63;;;;;;;20.89;66.91;100519.66;4993946;28;96848;-27
2023/07/15 06:50:43;;;;;;;0.88;0.47;;;;;;;20.92;66.95;100519.31;4993932;28;98837;-27
2023/07/15 06:53:09;;;;;;;0.88;0.50;;;;;;;20.96;65.63;100517.94;4993864;28;97095;-27
2023/07/15 06:55:34;;;;;;;1.58;0.40;;;;;;;21.18;65.22;100532.94;4993776;28;96756;-28
2023/07/15 06:58:01;;;;;;;1.20;0.50;;;;;;;21.26;64.89;100525.69;4992804;28;96569;-27
2023/07/15 07:00:27;;;;;;;0.73;0.38;;;;;;;21.35;65.10;100521.91;4996216;28;97502;-27
2023/07/15 07:02:52;;;;;;;1.13;0.50;;;;;;;21.43;65.00;100519.19;4997366;28;96900;-28
2023/07/15 07:05:19;;;;;;;1.65;0.50;;;;;;;21.52;64.53;100518.13;4997595;28;96587;-29
2023/07/15 07:07:44;;;;;;;0.82;0.60;;;;;;;21.60;64.69;100517.28;4997253;28;96805;-28
2023/07/15 07:10:10;;;;;;;3.65;0.70;;;;;;;21.57;63.99;100507.47;4997227;28;97469;-27
2023/07/15 07:12:35;;;;;;;1.38;0.57;;;;;;;21.76;64.46;100527.41;4997629;28;98013;-27
2023/07/15 07:15:01;;;;;;;0.55;0.45;;;;;;;21.79;64.73;100525.16;4997406;28;96802;-27
2023/07/15 07:17:28;;;;;;;1.90;0.50;;;;;;;21.73;63.52;100519.50;4995900;28;96805;-29
2023/07/15 07:19:54;;;;;;;0.77;0.55;;;;;;;21.71;63.55;100524.31;4995052;28;100978;-27
2023/07/15 07:22:19;;;;;;;0.70;0.43;;;;;;;21.58;64.54;100514.69;4996665;28;99248;-27
2023/07/15 07:24:45;;;;;;;0.45;0.28;;;;;;;21.66;64.11;100540.53;4997319;28;96545;-27
2023/07/15 07:27:12;;;;;;;0.95;0.52;;;;;;;21.65;64.53;100539.69;4995778;28;96610;-28
2023/07/15 07:29:37;;;;;;;0.85;0.45;;;;;;;21.64;64.39;100537.94;4996591;28;99319;-27
2023/07/15 07:32:03;;;;;;;1.10;0.52;;;;;;;21.62;64.55;100524.34;4996628;28;99466;-28
2023/07/15 07:34:28;;;;;;;1.15;0.70;;;;;;;21.71;63.79;100533.44;4996964;28;97667;-28
2023/07/15 07:36:54;;;;;;;3.97;0.50;;;;;;;21.81;63.79;100525.88;4997137;28;96835;-27
2023/07/15 07:39:19;;;;;;;1.90;0.75;;;;;;;21.93;63.28;100537.38;4996599;28;98926;-27
2023/07/15 07:41:44;;;;;;;0.82;0.40;;;;;;;21.88;63.40;100537.06;4996702;28;97866;-27
2023/07/15 07:44:10;;;;;;;0.45;0.38;;;;;;;21.87;63.70;100535.31;4996456;28;96698;-28
2023/07/15 07:46:35;;;;;;;1.95;0.50;;;;;;;21.84;63.09;100533.78;4996511;28;96830;-27
2023/07/15 07:49:01;;;;;;;0.88;0.47;;;;;;;21.88;64.01;100531.53;4996238;28;98432;-28
2023/07/15 07:51:26;;;;;;;0.60;0.40;;;;;;;21.93;63.32;100537.38;4996380;28;98072;-28
2023/07/15 07:53:52;;;;;;;0.75;0.57;;;;;;;22.04;62.75;100542.50;4996498;28;96590;-27
2023/07/15 07:56:17;;;;;;;1.85;0.52;;;;;;;22.11;62.80;100544.56;4996561;28;96809;-27
2023/07/15 07:58:44;;;;;;;1.08;0.60;;;;;;;22.06;61.93;100545.94;4996461;28;97879;-27
2023/07/15 08:01:10;;;;;;;2.05;0.70;;;;;;;22.08;61.91;100553.22;4995322;28;101166;-28
2023/07/15 08:03:36;;;;;;;1.83;0.55;;;;;;;22.05;62.06;100547.00;4996455;28;96745;-28
2023/07/15 08:06:01;;;;;;;1.15;0.65;;;;;;;22.10;61.77;100554.75;4996503;28;96855;-28
2023/07/15 08:08:26;;;;;;;1.60;0.75;;;;;;;22.04;61.66;100550.78;4995783;28;97882;-28
2023/07/15 08:10:53;;;;;;;0.55;0.40;;;;;;;22.15;61.06;100556.97;4995152;28;99424;-27
2023/07/15 08:13:18;;;;;;;1.33;0.70;;;;;;;22.19;61.53;100570.25;4996299;28;96654;-28
2023/07/15 08:15:44;;;;;;;1.70;0.70;;;;;;;22.16;60.69;100558.69;4996497;28;96818;-29
2023/07/15 08:18:09;;;;;;;1.55;0.75;;;;;;;22.10;61.46;100563.03;4996091;28;97893;-27
2023/07/15 08:20:35;;;;;;;0.93;0.60;;;;;;;22.13;61.32;100559.91;4995951;28;97908;-28
2023/07/15 08:23:00;;;;;;;1.35;0.50;;;;;;;22.33;61.02;100560.38;4996039;28;96562;-28
2023/07/15 08:25:26;;;;;;;0.82;0.38;;;;;;;22.29;60.57;100559.03;4996533;28;96962;-27
2023/07/15 08:27:53;;;;;;;0.95;0.60;;;;;;;22.21;60.94;100556.28;4994483;28;98902;-27
2023/07/15 08:30:20;;;;;;;0.88;0.55;;;;;;;22.23;61.11;100555.06;4994480;28;98794;-27
2023/07/15 08:32:45;;;;;;;1.27;0.60;;;;;;;22.36;60.34;100565.56;4994176;28;96596;-27
2023/07/15 08:35:10;;;;;;;4.13;1.30;;;;;;;22.37;61.27;100570.03;4995612;28;96966;-27
2023/07/15 08:37:36;;;;;;;1.98;0.70;;;;;;;22.50;61.05;100576.88;4995604;28;104917;-28
2023/07/15 08:40:03;;;;;;;1.10;0.40;;;;;;;22.38;60.34;100569.00;4995488;28;99165;-28
2023/07/15 08:42:29;;;;;;;0.93;0.52;;;;;;;22.38;60.69;100582.81;4994559;28;96798;-27
2023/07/15 08:44:55;;;;;;;1.20;0.35;;;;;;;22.16;60.93;100576.09;4994456;28;96701;-27
2023/07/15 08:47:24;;;;;;;1.95;0.63;;;;;;;22.22;60.58;100567.16;4993986;28;101227;-27
2023/07/15 08:49:51;;;;;;;1.20;0.43;;;;;;;22.20;60.15;100571.97;4993897;28;101007;-27
2023/07/15 08:52:19;;;;;;;1.17;0.63;;;;;;;22.29;60.69;100575.59;4994513;28;96647;-28
2023/07/15 08:54:48;;;;;;;3.05;0.63;;;;;;;22.33;61.02;100582.44;4994371;28;96907;-27
2023/07/15 08:57:17;;;;;;;4.15;1.83;;;;;;;22.15;59.84;100568.88;4993308;28;101130;-27
2023/07/15 08:59:45;;;;;;;8.63;1.95;;;;;;;22.31;60.59;100584.56;4994075;28;99005;-28
2023/07/15 09:02:10;;;;;;;6.32;2.63;;;;;;;22.37;60.71;100591.25;4993898;28;96624;-28
2023/07/15 09:04:35;;;;;;;3.90;1.95;;;;;;;22.44;60.41;100595.88;4995793;28;97014;-27
2023/07/15 09:07:01;;;;;;;3.45;1.00;;;;;;;22.55;60.30;100586.34;4995296;28;97404;-28
2023/07/15 09:09:33;;;;;;;3.05;0.60;;;;;;;22.61;60.20;100593.06;4995352;28;97810;-27
2023/07/15 09:12:00;;;;;;;0.77;0.55;;;;;;;22.51;60.21;100590.50;4995340;28;96714;-27
2023/07/15 09:14:25;;;;;;;5.20;1.60;;;;;;;22.58;59.97;100596.19;4994405;28;96957;-28
2023/07/15 09:16:55;;;;;;;10.80;3.67;;;;;;;22.63;60.42;100588.22;4994963;28;97954;-28
2023/07/15 09:19:22;;;;;;;18.10;6.53;;;;;;;22.87;60.01;100590.00;4994889;28;99098;-27
2023/07/15 09:22:08;;;;;;;5.53;2.28;;;;;;;22.95;59.41;100600.13;4994694;28;96625;-28
2023/07/15 09:24:37;;;;;;;1.35;0.60;;;;;;;22.86;58.10;100588.28;4994914;28;96904;-28
2023/07/15 09:27:03;;;;;;;2.15;0.65;;;;;;;22.92;58.83;100597.72;4994926;28;97359;-31
2023/07/15 09:29:29;;;;;;;1.15;0.65;;;;;;;22.88;58.15;100591.69;4993612;28;101050;-27
2023/07/15 09:31:55;;;;;;;2.15;0.60;;;;;;;22.85;59.41;100597.59;4993834;28;96531;-27
2023/07/15 09:34:22;;;;;;;0.95;0.75;;;;;;;22.79;57.84;100596.44;4993549;28;97013;-27
2023/07/15 09:36:47;;;;;;;1.10;0.70;;;;;;;22.74;59.18;100603.50;4994529;28;99933;-28
2023/07/15 09:39:19;;;;;;;6.43;0.70;;;;;;;22.82;58.81;100596.06;4995253;28;97808;-27
2023/07/15 09:41:59;;;;;;;1.58;0.68;;;;;;;23.19;58.64;100601.91;4993539;28;96724;-27
2023/07/15 09:44:38;;;;;;;1.27;0.40;;;;;;;23.27;57.74;100604.63;4993737;28;96723;-28
2023/07/15 09:47:04;;;;;;;2.15;0.88;;;;;;;23.25;57.92;100599.28;4992536;28;101055;-27
2023/07/15 09:49:31;;;;;;;1.33;0.82;;;;;;;23.45;57.96;100604.31;4994490;28;97535;-31
2023/07/15 09:51:58;;;;;;;2.55;0.60;;;;;;;23.46;57.64;100597.75;4990921;28;96821;-33
2023/07/15 09:54:30;;;;;;;1.38;0.75;;;;;;;23.65;56.80;100611.06;4990644;28;97148;-29
2023/07/15 09:57:13;;;;;;;1.98;1.05;;;;;;;23.54;57.05;100605.97;4990628;28;101147;-28
2023/07/15 09:59:46;;;;;;;1.45;0.60;;;;;;;23.44;57.62;100608.13;4990532;28;101196;-30
2023/07/15 10:02:33;;;;;;;1.65;0.88;;;;;;;23.30;57.66;100607.88;4990834;28;96765;-32
2023/07/15 10:05:04;;;;;;;2.20;1.27;;;;;;;23.15;58.11;100615.25;4991383;28;97103;-28
2023/07/15 10:07:30;;;;;;;1.73;1.00;;;;;;;23.03;58.64;100600.13;4994575;28;97419;-29
2023/07/15 10:09:58;;;;;;;2.60;0.68;;;;;;;23.10;59.42;100590.91;4993147;28;100677;-29
2023/07/15 10:12:25;;;;;;;1.70;0.93;;;;;;;23.27;58.42;100597.19;4992839;28;96672;-28
2023/07/15 10:14:50;;;;;;;1.50;0.73;;;;;;;23.21;58.28;100602.59;4993347;28;96836;-28
2023/07/15 10:17:16;;;;;;;2.10;0.60;;;;;;;23.20;58.83;100600.88;4994273;28;98131;-27
2023/07/15 10:19:45;;;;;;;2.08;0.85;;;;;;;23.21;59.47;100608.13;4994440;28;97717;-27
2023/07/15 10:22:11;;;;;;;1.95;0.60;;;;;;;23.15;58.54;100598.66;4993145;28;96800;-28
2023/07/15 10:24:42;;;;;;;1.63;0.60;;;;;;;23.27;58.55;100599.97;4993251;28;96897;-27
2023/07/15 10:27:10;;;;;;;0.57;0.52;;;;;;;23.32;59.02;100589.22;4994546;28;97992;-27
2023/07/15 10:29:39;;;;;;;3.40;0.95;;;;;;;23.29;57.91;100595.09;4992950;28;101315;-27
2023/07/15 10:32:13;;;;;;;2.17;0.77;;;;;;;23.57;58.13;100591.75;4992983;28;96725;-27
2023/07/15 10:34:41;;;;;;;3.65;0.98;;;;;;;23.69;57.60;100582.00;4994088;28;96862;-28
2023/07/15 10:37:09;;;;;;;1.20;0.70;;;;;;;24.16;56.64;100574.44;4995534;28;101264;-28
2023/07/15 10:39:35;;;;;;;3.20;0.70;;;;;;;24.40;56.33;100569.69;4997615;28;97806;-27
2023/07/15 10:42:08;;;;;;;1.27;0.60;;;;;;;24.71;55.48;100566.72;4997890;28;96671;-28
2023/07/15 10:44:45;;;;;;;2.28;0.70;;;;;;;24.93;54.88;100564.84;4997626;28;96794;-27
2023/07/15 10:47:14;;;;;;;2.03;0.75;;;;;;;24.99;54.26;100556.59;4997427;28;98007;-27
2023/07/15 10:49:41;;;;;;;2.38;1.08;;;;;;;25.14;53.91;100561.25;4995811;28;99015;-28
2023/07/15 10:52:07;;;;;;;2.22;0.70;;;;;;;25.22;54.68;100552.84;4996276;28;96596;-28
2023/07/15 10:54:40;;;;;;;1.20;0.73;;;;;;;25.47;54.58;100541.34;4998181;28;96744;-30
2023/07/15 10:57:15;;;;;;;3.78;1.02;;;;;;;25.45;53.28;100541.53;4997176;28;99422;-27
2023/07/15 10:59:45;;;;;;;2.13;0.80;;;;;;;25.62;54.44;100540.19;4996030;28;100843;-27
2023/07/15 11:02:12;;;;;;;2.35;0.90;;;;;;;25.63;53.77;100536.34;4995716;28;96748;-27
2023/07/15 11:04:39;;;;;;;0.88;0.63;;;;;;;25.57;53.63;100528.81;4996168;28;96843;-28
2023/07/15 11:07:06;;;;;;;1.88;0.80;;;;;;;25.67;53.58;100528.50;4995659;28;101443;-27
2023/07/15 11:09:36;;;;;;;1.80;0.55;;;;;;;25.67;54.21;100534.06;4995752;28;100946;-28
2023/07/15 11:12:05;;;;;;;3.78;1.05;;;;;;;25.87;53.45;100534.22;4995931;28;97175;-28
2023/07/15 11:14:30;;;;;;;3.20;0.90;;;;;;;25.90;51.80;100513.53;4995978;28;96475;-28
2023/07/15 11:17:00;;;;;;;1.63;0.80;;;;;;;25.93;51.30;100516.75;4995787;28;98479;-27
2023/07/15 11:19:28;;;;;;;0.88;0.70;;;;;;;26.17;51.26;100518.19;4997206;28;97882;-27
2023/07/15 11:21:59;;;;;;;1.35;0.80;;;;;;;25.80;50.92;100508.31;4995861;28;96632;-28